createdAt,value
2019-03-01T00:02:27.061Z,0.50
2019-03-01T00:05:02.986Z,0.40
2019-03-01T00:08:07.190Z,0.40
2019-03-01T00:10:49.179Z,0.40
2019-03-01T00:13:35.311Z,0.30
2019-03-01T00:16:24.824Z,0.40
2019-03-01T00:19:28.659Z,0.40
2019-03-01T00:22:04.934Z,0.40
2019-03-01T00:24:50.332Z,0.40
2019-03-01T00:27:23.385Z,0.50
2019-03-01T00:30:17.239Z,0.40
2019-03-01T00:32:52.629Z,0.40
2019-03-01T00:35:56.446Z,0.40
2019-03-01T00:38:38.911Z,0.40
2019-03-01T00:41:26.992Z,0.40
2019-03-01T00:44:01.178Z,0.40
2019-03-01T00:46:27.389Z,0.40
2019-03-01T00:48:53.605Z,0.40
2019-03-01T00:51:20.923Z,0.40
2019-03-01T00:53:47.140Z,0.40
2019-03-01T00:56:13.367Z,0.30
2019-03-01T00:58:39.614Z,0.30
2019-03-01T01:01:05.838Z,0.30
2019-03-01T01:03:32.053Z,0.20
2019-03-01T01:05:58.357Z,0.20
2019-03-01T01:08:24.579Z,0.20
2019-03-01T01:10:50.824Z,0.10
2019-03-01T01:13:17.853Z,0.20
2019-03-01T01:15:44.183Z,0.20
2019-03-01T01:18:10.522Z,0.30
2019-03-01T01:20:36.941Z,0.30
2019-03-01T01:23:03.181Z,0.40
2019-03-01T01:25:29.509Z,0.30
2019-03-01T01:27:55.745Z,0.30
2019-03-01T01:30:21.973Z,0.40
2019-03-01T01:32:48.301Z,0.50
2019-03-01T01:35:14.729Z,0.50
2019-03-01T01:37:41.031Z,0.50
2019-03-01T01:40:09.362Z,0.50
2019-03-01T01:42:35.633Z,0.50
2019-03-01T01:45:04.246Z,0.60
2019-03-01T01:49:55.005Z,0.60
2019-03-01T01:52:21.253Z,0.60
2019-03-01T01:54:47.573Z,0.60
2019-03-01T01:57:13.829Z,0.60
2019-03-01T01:59:40.041Z,0.60
2019-03-01T02:02:06.361Z,0.60
2019-03-01T02:04:32.690Z,0.60
2019-03-01T02:06:59.026Z,0.60
2019-03-01T02:09:25.909Z,0.60
2019-03-01T02:11:52.352Z,0.60
2019-03-01T02:14:19.662Z,0.60
2019-03-01T02:16:46.981Z,0.60
2019-03-01T02:19:13.236Z,0.60
2019-03-01T02:21:39.566Z,0.60
2019-03-01T02:24:05.799Z,0.70
2019-03-01T02:26:32.121Z,0.60
2019-03-01T02:28:58.435Z,0.60
2019-03-01T02:31:24.753Z,0.60
2019-03-01T02:33:51.010Z,0.70
2019-03-01T02:36:17.236Z,0.70
2019-03-01T02:38:43.470Z,0.70
2019-03-01T02:41:09.926Z,0.80
2019-03-01T02:43:36.249Z,0.70
2019-03-01T02:46:02.683Z,0.70
2019-03-01T02:48:29.111Z,0.70
2019-03-01T02:50:55.416Z,0.70
2019-03-01T02:53:21.746Z,0.60
2019-03-01T02:55:48.063Z,0.60
2019-03-01T02:58:14.287Z,0.50
2019-03-01T03:00:40.612Z,0.50
2019-03-01T03:03:07.073Z,0.40
2019-03-01T03:05:35.268Z,0.40
2019-03-01T03:08:03.365Z,0.50
2019-03-01T03:10:29.581Z,0.50
2019-03-01T03:12:59.105Z,0.60
2019-03-01T03:15:27.265Z,0.60
2019-03-01T03:17:53.467Z,0.50
2019-03-01T03:20:19.677Z,0.60
2019-03-01T03:22:45.899Z,0.50
2019-03-01T03:25:13.151Z,0.50
2019-03-01T03:27:39.466Z,0.50
2019-03-01T03:30:14.221Z,0.60
2019-03-01T03:32:40.811Z,0.60
2019-03-01T03:35:07.332Z,0.60
2019-03-01T03:37:33.663Z,0.60
2019-03-01T03:39:59.874Z,0.60
2019-03-01T03:42:26.095Z,0.60
2019-03-01T03:44:52.426Z,0.60
2019-03-01T03:47:18.658Z,0.50
2019-03-01T03:49:45.015Z,0.50
2019-03-01T03:52:11.293Z,0.50
2019-03-01T03:54:37.514Z,0.50
2019-03-01T03:57:03.916Z,0.40
2019-03-01T03:59:30.153Z,0.50
2019-03-01T04:01:56.368Z,0.50
2019-03-01T04:04:22.787Z,0.50
2019-03-01T04:06:49.206Z,0.50
2019-03-01T04:09:15.413Z,0.60
2019-03-01T04:11:41.630Z,0.50
2019-03-01T04:14:07.873Z,0.50
2019-03-01T04:16:34.195Z,0.60
2019-03-01T04:19:00.417Z,0.60
2019-03-01T04:21:26.757Z,0.50
2019-03-01T04:23:53.070Z,0.50
2019-03-01T04:26:19.381Z,0.60
2019-03-01T04:28:45.624Z,0.60
2019-03-01T04:31:11.934Z,0.70
2019-03-01T04:33:38.256Z,0.60
2019-03-01T04:36:04.618Z,0.60
2019-03-01T04:38:30.945Z,0.60
2019-03-01T04:40:57.164Z,0.60
2019-03-01T04:43:23.405Z,0.50
2019-03-01T04:45:49.614Z,0.50
2019-03-01T04:48:15.848Z,0.50
2019-03-01T04:50:42.188Z,0.50
2019-03-01T04:53:08.462Z,0.50
2019-03-01T04:55:34.737Z,0.50
2019-03-01T04:58:00.986Z,0.50
2019-03-01T05:00:27.302Z,0.50
2019-03-01T05:02:53.618Z,0.40
2019-03-01T05:05:20.073Z,0.40
2019-03-01T05:07:46.477Z,0.40
2019-03-01T05:10:14.209Z,0.40
2019-03-01T05:12:40.649Z,0.30
2019-03-01T05:15:10.056Z,0.30
2019-03-01T05:17:36.371Z,0.40
2019-03-01T05:20:04.006Z,0.40
2019-03-01T05:22:31.212Z,0.40
2019-03-01T05:24:57.422Z,0.60
2019-03-01T05:27:23.645Z,0.60
2019-03-01T05:29:49.958Z,0.80
2019-03-01T05:32:16.177Z,0.70
2019-03-01T05:34:42.417Z,0.70
2019-03-01T05:37:08.731Z,0.70
2019-03-01T05:39:35.037Z,0.60
2019-03-01T05:42:01.269Z,0.60
2019-03-01T05:44:27.587Z,0.60
2019-03-01T05:46:53.798Z,0.70
2019-03-01T05:49:20.042Z,0.70
2019-03-01T05:51:46.260Z,0.70
2019-03-01T05:54:12.478Z,0.70
2019-03-01T05:56:38.730Z,0.70
2019-03-01T05:59:11.758Z,0.80
2019-03-01T06:01:47.827Z,0.80
2019-03-01T06:04:17.740Z,0.80
2019-03-01T06:07:04.740Z,0.70
2019-03-01T06:09:58.641Z,0.70
2019-03-01T06:12:46.955Z,0.70
2019-03-01T06:15:29.276Z,0.70
2019-03-01T06:18:05.565Z,0.70
2019-03-01T06:20:44.613Z,0.60
2019-03-01T06:23:20.444Z,0.60
2019-03-01T06:26:12.139Z,0.50
2019-03-01T06:28:48.017Z,0.50
2019-03-01T06:31:26.813Z,0.50
2019-03-01T06:34:15.025Z,0.40
2019-03-01T06:37:00.257Z,0.40
2019-03-01T06:39:51.942Z,0.30
2019-03-01T06:42:49.529Z,0.30
2019-03-01T06:45:19.594Z,0.20
2019-03-01T06:47:48.957Z,0.20
2019-03-01T06:50:17.665Z,0.20
2019-03-01T06:52:44.073Z,0.20
2019-03-01T06:55:26.448Z,0.20
2019-03-01T06:57:52.682Z,0.20
2019-03-01T07:00:18.993Z,0.20
2019-03-01T07:02:47.109Z,0.20
2019-03-01T07:05:13.361Z,0.20
2019-03-01T07:07:39.601Z,0.30
2019-03-01T07:10:07.213Z,0.30
2019-03-01T07:12:33.449Z,0.40
2019-03-01T07:14:59.665Z,0.40
2019-03-01T07:17:25.891Z,0.40
2019-03-01T07:19:52.133Z,0.50
2019-03-01T07:22:18.436Z,0.60
2019-03-01T07:24:44.649Z,0.60
2019-03-01T07:27:12.324Z,0.80
2019-03-01T07:29:38.786Z,0.90
2019-03-01T07:32:04.997Z,0.90
2019-03-01T07:34:31.319Z,0.90
2019-03-01T07:36:57.533Z,1.00
2019-03-01T07:39:23.749Z,1.10
2019-03-01T07:41:50.058Z,1.20
2019-03-01T07:44:16.381Z,1.20
2019-03-01T07:46:52.332Z,1.30
2019-03-01T07:49:10.836Z,1.50
2019-03-01T07:51:37.065Z,1.50
2019-03-01T07:54:03.358Z,1.60
2019-03-01T07:56:29.591Z,1.60
2019-03-01T07:58:57.540Z,1.60
2019-03-01T08:01:25.662Z,1.60
2019-03-01T08:03:53.193Z,1.50
2019-03-01T08:06:19.510Z,1.50
2019-03-01T08:08:45.725Z,1.50
2019-03-01T08:11:11.962Z,1.50
2019-03-01T08:13:38.167Z,1.60
2019-03-01T08:16:04.492Z,1.70
2019-03-01T08:18:30.802Z,1.70
2019-03-01T08:20:57.124Z,1.70
2019-03-01T08:23:23.340Z,1.80
2019-03-01T08:25:49.673Z,1.90
2019-03-01T08:28:18.501Z,2.00
2019-03-01T08:30:45.713Z,2.10
2019-03-01T08:33:12.151Z,2.20
2019-03-01T08:35:38.363Z,2.20
2019-03-01T08:38:04.671Z,2.20
2019-03-01T08:40:30.893Z,2.20
2019-03-01T08:42:57.199Z,2.20
2019-03-01T08:45:23.430Z,2.20
2019-03-01T08:47:49.745Z,2.20
2019-03-01T08:50:16.257Z,2.30
2019-03-01T08:52:43.582Z,2.30
2019-03-01T08:55:15.738Z,2.40
2019-03-01T08:57:44.485Z,2.40
2019-03-01T09:00:13.777Z,2.50
2019-03-01T09:02:41.046Z,2.50
2019-03-01T09:05:09.928Z,2.60
2019-03-01T09:07:36.257Z,2.60
2019-03-01T09:10:05.990Z,2.70
2019-03-01T09:12:32.295Z,2.60
2019-03-01T09:14:58.513Z,2.60
2019-03-01T09:17:24.761Z,2.70
2019-03-01T09:19:50.981Z,2.80
2019-03-01T09:22:17.204Z,2.90
2019-03-01T09:24:43.430Z,3.10
2019-03-01T09:27:09.635Z,3.20
2019-03-01T09:29:41.660Z,3.40
2019-03-01T09:32:04.061Z,3.50
2019-03-01T09:34:32.206Z,3.50
2019-03-01T09:36:58.505Z,3.60
2019-03-01T09:39:24.736Z,3.70
2019-03-01T09:41:50.953Z,3.80
2019-03-01T09:44:18.262Z,3.90
2019-03-01T09:46:44.501Z,4.00
2019-03-01T09:49:10.722Z,4.20
2019-03-01T09:51:38.040Z,4.50
2019-03-01T09:54:06.478Z,4.70
2019-03-01T09:56:32.369Z,4.80
2019-03-01T09:58:58.690Z,5.00
2019-03-01T10:01:24.909Z,5.20
2019-03-01T10:06:11.109Z,5.30
2019-03-01T10:08:37.361Z,5.60
2019-03-01T10:11:03.670Z,5.70
2019-03-01T10:13:30.447Z,6.00
2019-03-01T10:15:56.826Z,6.00
2019-03-01T10:18:23.049Z,6.00
2019-03-01T10:20:49.276Z,6.00
2019-03-01T10:23:15.537Z,6.00
2019-03-01T10:25:41.845Z,5.90
2019-03-01T10:28:08.169Z,5.70
2019-03-01T10:30:34.397Z,5.70
2019-03-01T10:33:00.681Z,5.70
2019-03-01T10:35:26.905Z,5.70
2019-03-01T10:37:53.786Z,5.90
2019-03-01T10:40:25.701Z,6.00
2019-03-01T10:42:51.913Z,6.10
2019-03-01T10:45:23.741Z,6.20
2019-03-01T10:47:49.957Z,6.30
2019-03-01T10:50:16.270Z,6.20
2019-03-01T10:52:42.491Z,6.20
2019-03-01T10:55:11.226Z,6.20
2019-03-01T10:57:37.546Z,6.30
2019-03-01T11:00:18.999Z,6.30
2019-03-01T11:02:45.405Z,6.40
2019-03-01T11:05:11.693Z,6.50
2019-03-01T11:07:37.933Z,6.60
2019-03-01T11:10:11.177Z,6.70
2019-03-01T11:12:37.388Z,6.90
2019-03-01T11:15:06.618Z,7.10
2019-03-01T11:17:32.925Z,7.10
2019-03-01T11:19:59.240Z,7.10
2019-03-01T11:22:25.485Z,7.20
2019-03-01T11:24:51.697Z,7.30
2019-03-01T11:27:17.909Z,7.40
2019-03-01T11:29:44.137Z,7.40
2019-03-01T11:32:10.365Z,7.40
2019-03-01T11:34:36.581Z,7.30
2019-03-01T11:37:03.869Z,7.40
2019-03-01T11:39:30.114Z,7.30
2019-03-01T11:41:56.389Z,7.20
2019-03-01T11:44:22.622Z,7.00
2019-03-01T11:46:48.931Z,6.80
2019-03-01T11:49:15.250Z,6.70
2019-03-01T11:51:41.489Z,6.60
2019-03-01T11:54:07.697Z,6.60
2019-03-01T11:56:33.910Z,6.60
2019-03-01T11:59:00.129Z,6.70
2019-03-01T12:01:26.346Z,6.80
2019-03-01T12:03:52.554Z,6.60
2019-03-01T12:06:18.781Z,6.40
2019-03-01T12:08:45.165Z,6.40
2019-03-01T12:11:11.485Z,6.30
2019-03-01T12:13:37.741Z,6.30
2019-03-01T12:16:03.957Z,6.40
2019-03-01T12:18:30.169Z,6.50
2019-03-01T12:20:56.399Z,6.60
2019-03-01T12:23:22.613Z,6.80
2019-03-01T12:25:48.826Z,6.80
2019-03-01T12:28:15.069Z,6.80
2019-03-01T12:30:41.281Z,6.90
2019-03-01T12:33:07.501Z,6.90
2019-03-01T12:35:33.725Z,7.00
2019-03-01T12:37:59.937Z,6.90
2019-03-01T12:40:30.153Z,6.80
2019-03-01T12:42:56.473Z,6.70
2019-03-01T12:45:22.692Z,6.70
2019-03-01T12:47:49.897Z,6.70
2019-03-01T12:50:16.226Z,6.90
2019-03-01T12:52:42.629Z,7.00
2019-03-01T12:55:12.392Z,7.00
2019-03-01T12:57:39.777Z,6.90
2019-03-01T13:00:12.615Z,6.80
2019-03-01T13:02:38.826Z,6.70
2019-03-01T13:05:07.754Z,6.70
2019-03-01T13:07:34.169Z,6.70
2019-03-01T13:10:03.380Z,6.70
2019-03-01T13:12:28.968Z,6.80
2019-03-01T13:14:55.169Z,6.80
2019-03-01T13:17:21.382Z,6.80
2019-03-01T13:19:47.615Z,6.80
2019-03-01T13:22:13.818Z,6.80
2019-03-01T13:24:40.664Z,6.90
2019-03-01T13:27:06.957Z,6.90
2019-03-01T13:29:33.169Z,7.00
2019-03-01T13:31:59.493Z,7.10
2019-03-01T13:34:26.750Z,7.20
2019-03-01T13:36:53.145Z,7.30
2019-03-01T13:39:20.699Z,7.30
2019-03-01T13:41:48.174Z,7.30
2019-03-01T13:44:14.581Z,7.30
2019-03-01T13:46:40.897Z,7.30
2019-03-01T13:49:07.229Z,7.30
2019-03-01T13:51:33.437Z,7.40
2019-03-01T13:53:59.658Z,7.40
2019-03-01T13:56:25.907Z,7.40
2019-03-01T13:58:52.229Z,7.50
2019-03-01T14:01:18.538Z,7.50
2019-03-01T14:03:44.861Z,7.50
2019-03-01T14:06:11.069Z,7.50
2019-03-01T14:08:37.544Z,7.60
2019-03-01T14:11:23.824Z,7.60
2019-03-01T14:13:51.138Z,7.50
2019-03-01T14:16:20.555Z,7.50
2019-03-01T14:18:46.314Z,7.50
2019-03-01T14:21:12.624Z,7.40
2019-03-01T14:23:38.837Z,7.40
2019-03-01T14:26:05.173Z,7.30
2019-03-01T14:28:31.389Z,7.30
2019-03-01T14:30:57.603Z,7.30
2019-03-01T14:33:23.824Z,7.30
2019-03-01T14:35:50.031Z,7.30
2019-03-01T14:38:16.249Z,7.30
2019-03-01T14:40:42.499Z,7.30
2019-03-01T14:43:08.805Z,7.30
2019-03-01T14:45:35.363Z,7.30
2019-03-01T14:48:01.602Z,7.30
2019-03-01T14:50:29.816Z,7.30
2019-03-01T14:52:58.741Z,7.20
2019-03-01T14:55:38.038Z,7.20
2019-03-01T14:58:14.134Z,7.20
2019-03-01T15:00:50.810Z,7.30
2019-03-01T15:03:33.037Z,7.30
2019-03-01T15:05:59.486Z,7.20
2019-03-01T15:08:25.798Z,7.20
2019-03-01T15:10:52.201Z,7.10
2019-03-01T15:13:18.621Z,7.10
2019-03-01T15:15:44.898Z,7.10
2019-03-01T15:18:11.110Z,7.00
2019-03-01T15:20:37.439Z,7.10
2019-03-01T15:23:03.870Z,7.10
2019-03-01T15:25:30.178Z,7.00
2019-03-01T15:27:56.491Z,7.00
2019-03-01T15:30:23.225Z,7.00
2019-03-01T15:32:49.623Z,6.90
2019-03-01T15:35:15.857Z,6.90
2019-03-01T15:37:42.061Z,6.80
2019-03-01T15:40:10.185Z,6.80
2019-03-01T15:42:36.377Z,6.70
2019-03-01T15:45:06.408Z,6.60
2019-03-01T15:47:32.686Z,6.60
2019-03-01T15:49:58.908Z,6.50
2019-03-01T15:52:25.137Z,6.50
2019-03-01T15:54:51.458Z,6.40
2019-03-01T15:57:18.985Z,6.40
2019-03-01T15:59:47.745Z,6.40
2019-03-01T16:02:14.017Z,6.30
2019-03-01T16:04:41.934Z,6.10
2019-03-01T16:07:08.385Z,6.00
2019-03-01T16:09:34.701Z,5.90
2019-03-01T16:12:00.945Z,5.80
2019-03-01T16:14:27.166Z,5.70
2019-03-01T16:16:54.385Z,5.60
2019-03-01T16:19:20.613Z,5.50
2019-03-01T16:21:46.812Z,5.40
2019-03-01T16:24:13.050Z,5.20
2019-03-01T16:26:39.292Z,5.00
2019-03-01T16:29:07.383Z,4.90
2019-03-01T16:31:33.645Z,4.80
2019-03-01T16:34:04.284Z,4.60
2019-03-01T16:36:30.365Z,4.50
2019-03-01T16:38:56.602Z,4.50
2019-03-01T16:41:22.954Z,4.40
2019-03-01T16:43:49.166Z,4.30
2019-03-01T16:46:16.481Z,4.20
2019-03-01T16:48:42.774Z,4.20
2019-03-01T16:51:10.222Z,4.20
2019-03-01T16:53:40.166Z,4.10
2019-03-01T16:56:04.832Z,4.10
2019-03-01T16:58:31.045Z,4.00
2019-03-01T17:00:57.265Z,3.80
2019-03-01T17:03:24.641Z,3.70
2019-03-01T17:05:50.869Z,3.60
2019-03-01T17:08:17.093Z,3.40
2019-03-01T17:10:43.325Z,3.40
2019-03-01T17:13:10.635Z,3.30
2019-03-01T17:15:36.852Z,3.20
2019-03-01T17:18:03.069Z,3.10
2019-03-01T17:20:29.368Z,3.00
2019-03-01T17:22:55.681Z,2.90
2019-03-01T17:25:23.498Z,2.80
2019-03-01T17:27:50.015Z,2.70
2019-03-01T17:30:22.709Z,2.60
2019-03-01T17:32:49.029Z,2.60
2019-03-01T17:35:15.345Z,2.40
2019-03-01T17:37:41.805Z,2.30
2019-03-01T17:40:10.813Z,2.30
2019-03-01T17:42:37.030Z,2.20
2019-03-01T17:45:06.457Z,2.10
2019-03-01T17:47:32.669Z,2.00
2019-03-01T17:49:58.881Z,1.90
2019-03-01T17:52:25.197Z,1.80
2019-03-01T17:54:51.409Z,1.70
2019-03-01T17:57:17.616Z,1.70
2019-03-01T17:59:44.694Z,1.70
2019-03-01T18:02:12.182Z,1.60
2019-03-01T18:04:40.121Z,1.60
2019-03-01T18:07:06.362Z,1.50
2019-03-01T18:09:32.565Z,1.50
2019-03-01T18:11:58.775Z,1.40
2019-03-01T18:14:25.022Z,1.40
2019-03-01T18:16:51.317Z,1.50
2019-03-01T18:19:17.533Z,1.50
2019-03-01T18:21:46.324Z,1.40
2019-03-01T18:24:14.334Z,1.40
2019-03-01T18:26:40.960Z,1.40
2019-03-01T18:29:08.380Z,1.30
2019-03-01T18:31:35.617Z,1.30
2019-03-01T18:34:02.918Z,1.30
2019-03-01T18:36:31.499Z,1.30
2019-03-01T18:38:57.281Z,1.30
2019-03-01T18:41:24.116Z,1.20
2019-03-01T18:43:51.641Z,1.20
2019-03-01T18:46:20.432Z,1.20
2019-03-01T18:48:48.713Z,1.10
2019-03-01T18:51:15.035Z,1.00
2019-03-01T18:53:41.341Z,0.90
2019-03-01T18:56:07.724Z,0.90
2019-03-01T18:58:33.968Z,0.70
2019-03-01T19:01:00.196Z,0.60
2019-03-01T19:03:26.556Z,0.40
2019-03-01T19:05:52.797Z,0.40
2019-03-01T19:08:19.013Z,0.30
2019-03-01T19:10:53.949Z,0.40
2019-03-01T19:13:14.473Z,0.40
2019-03-01T19:15:40.694Z,0.40
2019-03-01T19:18:06.911Z,0.30
2019-03-01T19:20:45.365Z,0.30
2019-03-01T19:23:11.737Z,0.30
2019-03-01T19:25:38.193Z,0.30
2019-03-01T19:28:04.519Z,0.20
2019-03-01T19:30:30.731Z,0.10
2019-03-01T19:32:58.863Z,0.00
2019-03-01T19:35:29.802Z,0.00
2019-03-01T19:37:53.034Z,0.00
2019-03-01T19:40:20.497Z,-0.10
2019-03-01T19:42:46.956Z,-0.10
2019-03-01T19:45:15.213Z,-0.10
2019-03-01T19:47:41.397Z,-0.20
2019-03-01T19:50:16.662Z,-0.30
2019-03-01T19:52:43.483Z,-0.30
2019-03-01T19:55:12.634Z,-0.40
2019-03-01T19:57:39.102Z,-0.50
2019-03-01T20:00:08.660Z,-0.50
2019-03-01T20:02:34.985Z,-0.60
2019-03-01T20:05:01.229Z,-0.60
2019-03-01T20:07:27.535Z,-0.60
2019-03-01T20:09:53.930Z,-0.70
2019-03-01T20:12:20.169Z,-0.70
2019-03-01T20:14:46.437Z,-0.70
2019-03-01T20:17:12.746Z,-0.70
2019-03-01T20:19:38.977Z,-0.70
2019-03-01T20:22:05.309Z,-0.80
2019-03-01T20:24:31.633Z,-0.90
2019-03-01T20:26:59.881Z,-0.80
2019-03-01T20:29:25.983Z,-0.90
2019-03-01T20:31:52.301Z,-0.80
2019-03-01T20:34:18.628Z,-0.80
2019-03-01T20:36:44.936Z,-0.90
2019-03-01T20:39:11.730Z,-0.90
2019-03-01T20:41:46.149Z,-0.90
2019-03-01T20:44:08.093Z,-1.00
2019-03-01T20:46:34.410Z,-1.10
2019-03-01T20:49:03.686Z,-1.10
2019-03-01T20:51:28.731Z,-1.20
2019-03-01T20:53:55.157Z,-1.30
2019-03-01T20:56:21.482Z,-1.30
2019-03-01T20:58:47.699Z,-1.40
2019-03-01T21:01:14.485Z,-1.40
2019-03-01T21:03:40.937Z,-1.50
2019-03-01T21:06:07.380Z,-1.50
2019-03-01T21:08:33.793Z,-1.50
2019-03-01T21:11:00.041Z,-1.60
2019-03-01T21:13:26.258Z,-1.60
2019-03-01T21:15:53.264Z,-1.60
2019-03-01T21:18:19.754Z,-1.60
2019-03-01T21:20:46.085Z,-1.60
2019-03-01T21:23:15.136Z,-1.50
2019-03-01T21:25:40.819Z,-1.50
2019-03-01T21:28:07.289Z,-1.50
2019-03-01T21:30:33.813Z,-1.60
2019-03-01T21:33:00.066Z,-1.60
2019-03-01T21:35:26.278Z,-1.70
2019-03-01T21:37:52.804Z,-1.80
2019-03-01T21:40:19.066Z,-1.80
2019-03-01T21:42:45.292Z,-1.80
2019-03-01T21:45:17.776Z,-1.90
2019-03-01T21:47:44.625Z,-2.00
2019-03-01T21:50:11.211Z,-1.90
2019-03-01T21:52:37.541Z,-1.80
2019-03-01T21:55:09.177Z,-1.70
2019-03-01T21:57:35.521Z,-1.70
2019-03-01T22:00:03.854Z,-1.80
2019-03-01T22:02:32.121Z,-1.80
2019-03-01T22:04:58.377Z,-1.80
2019-03-01T22:07:24.608Z,-1.80
2019-03-01T22:09:50.842Z,-1.90
2019-03-01T22:12:17.066Z,-1.90
2019-03-01T22:14:45.697Z,-2.00
2019-03-01T22:17:13.523Z,-1.90
2019-03-01T22:19:39.365Z,-1.90
2019-03-01T22:22:07.358Z,-2.00
2019-03-01T22:24:34.253Z,-2.10
2019-03-01T22:27:00.584Z,-2.10
2019-03-01T22:29:26.801Z,-2.10
2019-03-01T22:31:53.052Z,-2.10
2019-03-01T22:34:19.265Z,-2.00
2019-03-01T22:36:45.491Z,-2.00
2019-03-01T22:39:13.664Z,-2.00
2019-03-01T22:41:40.455Z,-2.10
2019-03-01T22:44:06.934Z,-2.20
2019-03-01T22:46:33.189Z,-2.20
2019-03-01T22:48:59.425Z,-2.10
2019-03-01T22:51:25.767Z,-2.10
2019-03-01T22:53:52.089Z,-2.20
2019-03-01T22:56:18.397Z,-2.20
2019-03-01T22:58:44.628Z,-2.30
2019-03-01T23:01:12.224Z,-2.30
2019-03-01T23:03:38.781Z,-2.20
2019-03-01T23:06:04.992Z,-2.30
2019-03-01T23:08:31.706Z,-2.30
2019-03-01T23:10:59.321Z,-2.30
2019-03-01T23:13:25.638Z,-2.20
2019-03-01T23:15:51.885Z,-2.20
2019-03-01T23:18:18.107Z,-2.30
2019-03-01T23:20:44.339Z,-2.20
2019-03-01T23:23:10.589Z,-2.20
2019-03-01T23:25:36.809Z,-2.20
2019-03-01T23:28:04.018Z,-2.20
2019-03-01T23:30:32.169Z,-2.30
2019-03-01T23:32:58.409Z,-2.40
2019-03-01T23:35:24.727Z,-2.40
2019-03-01T23:37:50.980Z,-2.40
2019-03-01T23:40:17.201Z,-2.40
2019-03-01T23:42:43.417Z,-2.30
2019-03-01T23:45:10.057Z,-2.20
2019-03-01T23:47:38.245Z,-2.30
2019-03-01T23:50:05.554Z,-2.30
2019-03-01T23:52:31.792Z,-2.30
2019-03-01T23:54:58.119Z,-2.30
2019-03-01T23:57:24.334Z,-2.40
2019-03-01T23:59:50.571Z,-2.40
